createdAt,value
2022-11-20T00:02:17.658Z,38.63
2022-11-20T00:04:45.709Z,38.84
2022-11-20T00:07:15.057Z,38.66
2022-11-20T00:10:35.874Z,38.60
2022-11-20T00:13:03.796Z,38.93
2022-11-20T00:15:31.738Z,38.69
2022-11-20T00:17:59.630Z,38.96
2022-11-20T00:20:27.637Z,38.57
2022-11-20T00:22:56.986Z,38.52
2022-11-20T00:25:24.912Z,38.68
2022-11-20T00:27:52.881Z,38.76
2022-11-20T00:30:20.984Z,38.57
2022-11-20T00:32:48.919Z,38.84
2022-11-20T00:35:16.974Z,38.54
2022-11-20T00:37:44.928Z,38.78
2022-11-20T00:40:15.141Z,38.59
2022-11-20T00:42:44.442Z,38.58
2022-11-20T00:45:12.385Z,39.01
2022-11-20T00:47:40.275Z,38.87
2022-11-20T00:50:08.822Z,38.67
2022-11-20T00:52:36.696Z,38.87
2022-11-20T00:55:04.777Z,38.63
2022-11-20T00:57:34.154Z,38.88
2022-11-20T01:00:02.122Z,38.83
2022-11-20T01:02:30.059Z,38.85
2022-11-20T01:04:57.996Z,38.53
2022-11-20T01:07:25.961Z,38.62
2022-11-20T01:09:55.026Z,38.52
2022-11-20T01:12:22.999Z,38.88
2022-11-20T01:14:52.251Z,38.61
2022-11-20T01:17:20.166Z,38.72
2022-11-20T01:19:50.955Z,38.84
2022-11-20T01:22:18.853Z,38.68
2022-11-20T01:24:46.810Z,38.68
2022-11-20T01:27:14.794Z,38.60
2022-11-20T01:29:43.861Z,38.76
2022-11-20T01:32:13.241Z,38.87
2022-11-20T01:34:41.185Z,38.69
2022-11-20T01:37:09.072Z,38.87
2022-11-20T01:39:55.364Z,38.73
2022-11-20T01:42:37.082Z,38.70
2022-11-20T01:45:38.393Z,38.74
2022-11-20T01:48:07.728Z,38.93
2022-11-20T01:50:35.687Z,38.88
2022-11-20T01:53:04.612Z,39.06
2022-11-20T01:55:33.414Z,39.08
2022-11-20T01:58:01.283Z,38.91
2022-11-20T02:00:29.274Z,38.63
2022-11-20T02:02:59.020Z,38.94
2022-11-20T02:05:33.782Z,38.85
2022-11-20T02:08:01.710Z,38.80
2022-11-20T02:10:54.480Z,39.08
2022-11-20T02:13:39.923Z,38.76
2022-11-20T02:16:07.898Z,39.01
2022-11-20T02:18:35.864Z,38.84
2022-11-20T02:21:07.416Z,38.99
2022-11-20T02:24:31.043Z,38.77
2022-11-20T02:27:01.345Z,38.81
2022-11-20T02:29:36.312Z,38.94
2022-11-20T02:32:04.343Z,38.97
2022-11-20T02:34:32.265Z,38.65
2022-11-20T02:37:00.324Z,38.99
2022-11-20T02:43:57.659Z,38.85
2022-11-20T02:46:25.640Z,39.08
2022-11-20T02:48:53.560Z,38.64
2022-11-20T02:51:22.861Z,38.98
2022-11-20T02:54:34.133Z,38.77
2022-11-20T02:57:02.003Z,38.85
2022-11-20T02:59:31.312Z,38.90
2022-11-20T03:01:59.207Z,39.04
2022-11-20T03:04:27.112Z,38.78
2022-11-20T03:06:55.100Z,38.70
2022-11-20T03:10:18.458Z,38.82
2022-11-20T03:12:46.475Z,39.10
2022-11-20T03:15:15.938Z,38.84
2022-11-20T03:17:43.902Z,38.73
2022-11-20T03:20:12.926Z,39.07
2022-11-20T03:22:40.751Z,38.76
2022-11-20T03:25:09.405Z,39.10
2022-11-20T03:27:37.387Z,38.87
2022-11-20T03:30:06.474Z,38.98
2022-11-20T03:32:35.828Z,38.94
2022-11-20T03:35:03.750Z,39.12
2022-11-20T03:37:31.664Z,39.03
2022-11-20T03:40:19.706Z,39.22
2022-11-20T03:42:47.650Z,39.08
2022-11-20T03:45:15.962Z,38.94
2022-11-20T03:47:45.385Z,39.02
2022-11-20T03:50:14.552Z,39.21
2022-11-20T03:52:42.443Z,39.13
2022-11-20T03:55:10.468Z,38.96
2022-11-20T03:57:38.325Z,39.05
2022-11-20T04:00:07.228Z,39.09
2022-11-20T04:02:35.247Z,38.99
2022-11-20T04:05:04.686Z,39.22
2022-11-20T04:07:32.671Z,39.17
2022-11-20T04:10:00.638Z,39.30
2022-11-20T04:12:28.555Z,39.05
2022-11-20T04:14:56.435Z,39.27
2022-11-20T04:17:24.391Z,39.30
2022-11-20T04:19:52.330Z,39.03
2022-11-20T04:22:21.653Z,39.28
2022-11-20T04:24:49.601Z,39.10
2022-11-20T04:27:17.570Z,38.94
2022-11-20T04:29:45.618Z,39.00
2022-11-20T04:32:13.846Z,39.15
2022-11-20T04:34:41.753Z,39.31
2022-11-20T04:37:09.705Z,38.92
2022-11-20T04:39:38.987Z,39.29
2022-11-20T04:42:24.376Z,39.29
2022-11-20T04:44:52.311Z,39.26
2022-11-20T04:47:20.260Z,39.23
2022-11-20T04:49:48.195Z,39.19
2022-11-20T04:52:16.204Z,39.26
2022-11-20T04:54:45.573Z,38.96
2022-11-20T04:57:15.850Z,39.23
2022-11-20T04:59:43.968Z,38.92
2022-11-20T05:02:12.313Z,39.39
2022-11-20T05:04:40.243Z,39.01
2022-11-20T05:07:08.211Z,39.19
2022-11-20T05:09:36.114Z,39.08
2022-11-20T05:12:05.882Z,39.13
2022-11-20T05:14:33.822Z,39.05
2022-11-20T05:17:01.927Z,38.96
2022-11-20T05:19:29.886Z,39.16
2022-11-20T05:21:57.873Z,39.23
2022-11-20T05:28:26.716Z,39.13
2022-11-20T05:30:54.633Z,39.04
2022-11-20T05:33:23.162Z,38.97
2022-11-20T05:35:53.655Z,39.30
2022-11-20T05:38:21.608Z,38.89
2022-11-20T05:40:49.588Z,39.11
2022-11-20T05:43:17.852Z,39.23
2022-11-20T05:45:54.232Z,39.04
2022-11-20T05:48:22.243Z,39.22
2022-11-20T05:50:51.873Z,39.10
2022-11-20T05:53:19.810Z,39.14
2022-11-20T05:55:47.773Z,38.84
2022-11-20T05:58:15.665Z,39.12
2022-11-20T06:00:43.604Z,38.99
2022-11-20T06:03:12.880Z,38.92
2022-11-20T06:05:40.858Z,39.18
2022-11-20T06:08:08.786Z,39.11
2022-11-20T06:14:27.483Z,39.02
2022-11-20T06:16:55.462Z,38.89
2022-11-20T06:19:24.724Z,39.12
2022-11-20T06:21:52.621Z,38.80
2022-11-20T06:24:35.831Z,39.07
2022-11-20T06:27:03.793Z,39.04
2022-11-20T06:29:34.063Z,38.64
2022-11-20T06:32:02.322Z,38.94
2022-11-20T06:34:31.612Z,38.77
2022-11-20T06:36:59.543Z,38.66
2022-11-20T06:39:34.898Z,38.68
2022-11-20T06:42:02.892Z,38.81
2022-11-20T06:44:30.824Z,38.84
2022-11-20T06:46:58.982Z,38.92
2022-11-20T06:49:27.252Z,38.98
2022-11-20T06:51:56.554Z,38.90
2022-11-20T06:55:20.193Z,38.52
2022-11-20T06:57:51.953Z,38.61
2022-11-20T07:00:21.441Z,38.61
2022-11-20T07:02:49.407Z,38.56
2022-11-20T07:05:17.422Z,38.61
2022-11-20T07:07:46.834Z,38.61
2022-11-20T07:14:55.951Z,38.56
2022-11-20T07:17:23.982Z,38.55
2022-11-20T07:19:51.912Z,38.53
2022-11-20T07:22:22.660Z,38.44
2022-11-20T07:28:32.609Z,38.55
2022-11-20T07:31:00.453Z,38.48
2022-11-20T07:33:28.844Z,38.38
2022-11-20T07:35:56.794Z,38.50
2022-11-20T07:38:24.783Z,38.46
2022-11-20T07:40:56.024Z,38.34
2022-11-20T07:43:23.994Z,38.40
2022-11-20T07:45:53.354Z,38.53
2022-11-20T07:48:21.208Z,38.61
2022-11-20T07:50:49.145Z,38.39
2022-11-20T07:53:21.747Z,38.49
2022-11-20T07:55:55.794Z,38.56
2022-11-20T07:58:23.822Z,38.34
2022-11-20T08:00:53.155Z,38.40
2022-11-20T08:03:24.857Z,38.59
2022-11-20T08:05:52.982Z,38.56
2022-11-20T08:08:20.892Z,38.26
2022-11-20T08:14:29.619Z,38.18
2022-11-20T08:16:58.953Z,38.27
2022-11-20T08:19:26.897Z,38.38
2022-11-20T08:21:54.816Z,38.11
2022-11-20T08:24:22.777Z,38.19
2022-11-20T08:26:50.754Z,38.00
2022-11-20T08:29:19.253Z,38.36
2022-11-20T08:31:47.298Z,38.16
2022-11-20T08:34:19.231Z,38.00
2022-11-20T08:36:47.369Z,38.25
2022-11-20T08:39:15.668Z,38.32
2022-11-20T08:45:35.657Z,38.36
2022-11-20T08:48:04.485Z,38.10
2022-11-20T08:50:34.595Z,37.85
2022-11-20T08:53:05.876Z,37.92
2022-11-20T08:55:52.179Z,38.08
2022-11-20T08:58:23.255Z,38.04
2022-11-20T09:00:51.141Z,37.66
2022-11-20T09:03:19.789Z,38.13
2022-11-20T09:05:49.087Z,38.08
2022-11-20T09:08:17.703Z,38.04
2022-11-20T09:14:30.685Z,37.87
2022-11-20T09:16:59.282Z,37.92
2022-11-20T09:19:40.786Z,37.87
2022-11-20T09:22:10.641Z,37.81
2022-11-20T09:24:39.331Z,38.03
2022-11-20T09:30:59.177Z,37.98
2022-11-20T09:33:27.786Z,37.89
2022-11-20T09:35:55.755Z,37.87
2022-11-20T09:38:25.740Z,37.70
2022-11-20T09:40:56.231Z,38.04
2022-11-20T09:43:28.230Z,37.87
2022-11-20T09:46:08.756Z,37.90
2022-11-20T09:48:48.036Z,38.03
2022-11-20T09:51:23.163Z,37.63
2022-11-20T09:53:59.598Z,37.64
2022-11-20T09:56:27.550Z,37.68
2022-11-20T09:58:57.471Z,37.75
2022-11-20T10:01:28.232Z,37.61
2022-11-20T10:03:59.321Z,37.64
2022-11-20T10:06:36.021Z,37.90
2022-11-20T10:09:09.784Z,37.63
2022-11-20T10:15:32.193Z,37.94
2022-11-20T10:18:19.785Z,37.84
2022-11-20T10:20:50.257Z,37.66
2022-11-20T10:23:31.114Z,37.62
2022-11-20T10:26:03.210Z,37.45
2022-11-20T10:28:38.295Z,37.59
2022-11-20T10:31:08.865Z,37.79
2022-11-20T10:34:04.890Z,37.57
2022-11-20T10:36:28.646Z,37.59
2022-11-20T10:38:59.589Z,37.61
2022-11-20T10:42:25.218Z,37.28
2022-11-20T10:45:06.784Z,37.73
2022-11-20T10:47:35.081Z,37.58
2022-11-20T10:50:05.691Z,37.35
2022-11-20T10:52:38.036Z,37.34
2022-11-20T10:59:35.568Z,37.37
2022-11-20T11:02:19.044Z,37.49
2022-11-20T11:04:49.057Z,37.42
2022-11-20T11:07:18.982Z,37.35
2022-11-20T11:09:50.625Z,37.35
2022-11-20T11:12:18.638Z,37.32
2022-11-20T11:14:51.485Z,37.36
2022-11-20T11:17:29.431Z,37.51
2022-11-20T11:20:09.635Z,37.61
2022-11-20T11:22:45.836Z,37.52
2022-11-20T11:33:08.133Z,37.28
2022-11-20T11:35:36.698Z,37.45
2022-11-20T11:38:06.667Z,37.18
2022-11-20T11:41:33.608Z,37.47
2022-11-20T11:44:36.161Z,37.27
2022-11-20T11:47:04.145Z,37.38
2022-11-20T11:49:34.203Z,37.12
2022-11-20T11:52:06.049Z,37.32
2022-11-20T11:54:38.291Z,37.35
2022-11-20T11:57:11.664Z,37.32
2022-11-20T12:00:00.531Z,37.03
2022-11-20T12:02:34.331Z,37.23
2022-11-20T12:05:07.153Z,37.38
2022-11-20T12:07:48.566Z,37.32
2022-11-20T12:10:23.309Z,37.01
2022-11-20T12:12:52.513Z,37.28
2022-11-20T12:15:32.478Z,37.23
2022-11-20T12:18:02.338Z,37.09
2022-11-20T12:20:36.646Z,37.19
2022-11-20T12:23:07.131Z,37.09
2022-11-20T12:25:36.103Z,37.26
2022-11-20T12:28:29.555Z,37.27
2022-11-20T12:31:06.519Z,37.10
2022-11-20T12:33:53.159Z,36.98
2022-11-20T12:36:28.332Z,37.23
2022-11-20T12:39:16.976Z,36.84
2022-11-20T12:46:34.607Z,36.81
2022-11-20T12:49:17.815Z,36.94
2022-11-20T12:51:56.773Z,36.69
2022-11-20T12:54:45.373Z,36.77
2022-11-20T12:57:20.680Z,36.90
2022-11-20T12:59:59.379Z,37.10
2022-11-20T13:02:33.669Z,36.69
2022-11-20T13:05:23.683Z,36.73
2022-11-20T13:07:54.321Z,36.95
2022-11-20T13:10:31.211Z,37.03
2022-11-20T13:13:02.690Z,36.81
2022-11-20T13:15:47.655Z,36.70
2022-11-20T13:18:16.106Z,36.89
2022-11-20T13:20:45.382Z,36.75
2022-11-20T13:23:25.744Z,36.74
2022-11-20T13:26:37.583Z,36.57
2022-11-20T13:29:10.382Z,36.69
2022-11-20T13:31:40.656Z,36.78
2022-11-20T13:34:08.673Z,36.91
2022-11-20T13:36:38.293Z,36.93
2022-11-20T13:39:07.569Z,36.86
2022-11-20T13:45:28.109Z,36.51
2022-11-20T13:47:57.182Z,36.59
2022-11-20T13:50:40.145Z,36.79
2022-11-20T13:53:14.731Z,36.83
2022-11-20T13:56:03.987Z,36.46
2022-11-20T13:58:38.431Z,36.54
2022-11-20T14:01:12.139Z,36.82
2022-11-20T14:06:29.992Z,36.55
2022-11-20T14:08:58.051Z,36.59
2022-11-20T14:11:48.830Z,36.82
2022-11-20T14:14:18.445Z,36.47
2022-11-20T14:16:48.696Z,36.62
2022-11-20T14:19:28.965Z,36.72
2022-11-20T14:22:09.056Z,36.76
2022-11-20T14:24:36.951Z,36.53
2022-11-20T14:27:06.961Z,36.51
2022-11-20T14:29:36.820Z,36.61
2022-11-20T14:32:05.617Z,36.58
2022-11-20T14:34:34.261Z,36.86
2022-11-20T14:37:03.533Z,36.48
2022-11-20T14:39:33.526Z,36.57
2022-11-20T14:42:24.707Z,36.42
2022-11-20T14:44:53.328Z,36.64
2022-11-20T14:47:24.762Z,36.49
2022-11-20T14:49:54.345Z,36.47
2022-11-20T14:52:23.726Z,36.15
2022-11-20T14:54:52.338Z,36.64
2022-11-20T14:57:27.671Z,36.31
2022-11-20T15:00:10.696Z,36.52
2022-11-20T15:02:42.253Z,36.50
2022-11-20T15:05:10.536Z,36.25
2022-11-20T15:07:40.057Z,36.11
2022-11-20T15:10:09.343Z,36.45
2022-11-20T15:12:59.843Z,36.39
2022-11-20T15:15:33.714Z,36.30
2022-11-20T15:18:03.766Z,36.11
2022-11-20T15:20:33.068Z,36.43
2022-11-20T15:23:01.804Z,36.27
2022-11-20T15:25:29.837Z,36.17
2022-11-20T15:31:51.326Z,36.32
2022-11-20T15:34:19.298Z,36.46
2022-11-20T15:36:48.040Z,36.40
2022-11-20T15:39:16.484Z,36.44
2022-11-20T15:41:45.130Z,36.36
2022-11-20T15:44:13.098Z,36.20
2022-11-20T15:46:43.245Z,36.45
2022-11-20T15:49:14.818Z,36.36
2022-11-20T15:51:44.015Z,36.37
2022-11-20T15:54:13.146Z,36.46
2022-11-20T16:00:32.621Z,36.47
2022-11-20T16:03:01.727Z,36.10
2022-11-20T16:05:32.010Z,36.44
2022-11-20T16:08:00.642Z,36.18
2022-11-20T16:10:28.571Z,36.14
2022-11-20T16:13:14.849Z,36.40
2022-11-20T16:15:49.713Z,36.44
2022-11-20T16:18:19.851Z,36.45
2022-11-20T16:20:50.165Z,36.53
2022-11-20T16:23:18.973Z,36.15
2022-11-20T16:25:46.903Z,36.23
2022-11-20T16:28:18.812Z,36.33
2022-11-20T16:30:47.244Z,36.39
2022-11-20T16:33:17.093Z,36.27
2022-11-20T16:35:45.093Z,36.46
2022-11-20T16:38:15.147Z,36.45
2022-11-20T16:40:43.190Z,36.40
2022-11-20T16:43:12.799Z,36.40
2022-11-20T16:45:42.773Z,36.27
2022-11-20T16:48:14.821Z,36.14
2022-11-20T16:50:52.213Z,36.29
2022-11-20T16:53:23.242Z,36.21
2022-11-20T16:55:51.172Z,36.11
2022-11-20T16:58:19.899Z,36.09
2022-11-20T17:00:51.697Z,36.39
2022-11-20T17:03:21.585Z,36.14
2022-11-20T17:05:49.534Z,36.13
2022-11-20T17:08:18.214Z,36.37
2022-11-20T17:10:47.578Z,36.45
2022-11-20T17:13:16.252Z,36.29
2022-11-20T17:15:46.725Z,36.19
2022-11-20T17:18:15.345Z,36.08
2022-11-20T17:20:43.240Z,36.29
2022-11-20T17:23:11.845Z,36.33
2022-11-20T17:25:39.980Z,36.40
2022-11-20T17:32:01.105Z,36.42
2022-11-20T17:34:29.749Z,36.27
2022-11-20T17:36:57.752Z,36.30
2022-11-20T17:39:26.325Z,36.15
2022-11-20T17:42:36.957Z,36.31
2022-11-20T17:45:07.957Z,36.35
2022-11-20T17:47:38.579Z,36.35
2022-11-20T17:50:07.938Z,36.30
2022-11-20T17:52:35.838Z,36.24
2022-11-20T17:55:04.580Z,36.36
2022-11-20T17:57:57.949Z,36.41
2022-11-20T18:00:27.087Z,36.54
2022-11-20T18:02:57.670Z,36.60
2022-11-20T18:05:25.609Z,36.34
2022-11-20T18:07:54.609Z,36.49
2022-11-20T18:10:23.354Z,36.23
2022-11-20T18:13:49.445Z,36.49
2022-11-20T18:16:18.680Z,36.49
2022-11-20T18:18:49.065Z,36.37
2022-11-20T18:21:17.019Z,36.45
2022-11-20T18:23:45.697Z,36.52
2022-11-20T18:26:13.659Z,36.49
2022-11-20T18:28:42.369Z,36.28
2022-11-20T18:31:10.331Z,36.44
2022-11-20T18:33:41.465Z,36.42
2022-11-20T18:36:14.128Z,36.41
2022-11-20T18:38:44.930Z,36.57
2022-11-20T18:41:33.692Z,36.49
2022-11-20T18:44:20.089Z,36.39
2022-11-20T18:46:47.992Z,36.53
2022-11-20T18:49:16.937Z,36.28
2022-11-20T18:51:46.288Z,36.60
2022-11-20T18:54:15.018Z,36.42
2022-11-20T18:56:56.985Z,36.51
2022-11-20T18:59:26.075Z,36.61
2022-11-20T19:01:54.462Z,36.31
2022-11-20T19:04:23.683Z,36.33
2022-11-20T19:06:56.325Z,36.33
2022-11-20T19:09:25.543Z,36.49
2022-11-20T19:12:55.423Z,36.17
2022-11-20T19:15:24.093Z,36.36
2022-11-20T19:17:53.307Z,36.42
2022-11-20T19:20:21.956Z,36.42
2022-11-20T19:22:53.635Z,36.67
2022-11-20T19:25:22.970Z,36.38
2022-11-20T19:27:56.970Z,36.30
2022-11-20T19:30:27.025Z,36.36
2022-11-20T19:32:54.887Z,36.37
2022-11-20T19:35:23.648Z,36.18
2022-11-20T19:37:52.988Z,36.32
2022-11-20T19:40:23.119Z,36.13
2022-11-20T19:42:51.121Z,36.40
2022-11-20T19:45:20.285Z,36.42
2022-11-20T19:50:37.051Z,36.34
2022-11-20T19:53:07.522Z,36.37
2022-11-20T19:55:38.040Z,36.22
2022-11-20T19:58:06.263Z,36.35
2022-11-20T20:00:37.019Z,36.17
2022-11-20T20:03:04.930Z,36.29
2022-11-20T20:05:33.664Z,36.25
2022-11-20T20:08:01.555Z,36.35
2022-11-20T20:10:31.596Z,36.20
2022-11-20T20:12:59.490Z,36.36
2022-11-20T20:15:28.233Z,36.42
2022-11-20T20:17:58.775Z,36.18
2022-11-20T20:20:27.452Z,36.13
2022-11-20T20:22:55.471Z,36.37
2022-11-20T20:25:25.142Z,36.16
2022-11-20T20:27:54.576Z,36.10
2022-11-20T20:30:27.042Z,36.09
2022-11-20T20:32:56.424Z,36.01
2022-11-20T20:35:29.467Z,36.30
2022-11-20T20:37:57.427Z,36.02
2022-11-20T20:40:26.370Z,36.09
2022-11-20T20:46:38.173Z,36.09
2022-11-20T20:49:07.502Z,36.19
2022-11-20T20:51:37.067Z,36.11
2022-11-20T20:54:05.423Z,36.30
2022-11-20T20:56:37.023Z,36.12
2022-11-20T20:59:05.047Z,36.24
2022-11-20T21:01:34.070Z,36.33
2022-11-20T21:04:03.441Z,36.41
2022-11-20T21:06:32.119Z,36.29
2022-11-20T21:09:00.070Z,37.13
2022-11-20T21:11:29.334Z,37.15
2022-11-20T21:13:57.284Z,37.22
2022-11-20T21:16:27.082Z,37.70
2022-11-20T21:18:54.963Z,37.20
2022-11-20T21:21:42.645Z,37.48
2022-11-20T21:24:10.630Z,37.37
2022-11-20T21:26:43.091Z,37.54
2022-11-20T21:29:11.076Z,37.62
2022-11-20T21:31:40.112Z,38.01
2022-11-20T21:34:10.094Z,37.51
2022-11-20T21:36:42.121Z,37.72
2022-11-20T21:39:10.964Z,37.53
2022-11-20T21:41:39.713Z,37.54
2022-11-20T21:46:56.887Z,37.94
2022-11-20T21:49:25.250Z,37.46
2022-11-20T21:51:55.543Z,37.82
2022-11-20T21:54:23.727Z,37.63
2022-11-20T21:56:54.077Z,37.76
2022-11-20T21:59:22.238Z,37.41
2022-11-20T22:01:50.882Z,37.68
2022-11-20T22:04:18.865Z,37.58
2022-11-20T22:06:48.167Z,37.43
2022-11-20T22:09:17.793Z,37.34
2022-11-20T22:11:46.411Z,37.62
2022-11-20T22:14:22.661Z,37.70
2022-11-20T22:16:53.913Z,37.65
2022-11-20T22:19:22.901Z,37.26
2022-11-20T22:21:51.867Z,37.22
2022-11-20T22:24:22.527Z,37.37
2022-11-20T22:26:51.749Z,37.24
2022-11-20T22:29:20.853Z,37.56
2022-11-20T22:31:49.575Z,37.25
2022-11-20T22:34:17.449Z,37.27
2022-11-20T22:36:46.363Z,37.32
2022-11-20T22:39:14.328Z,37.62
2022-11-20T22:41:45.102Z,37.25
2022-11-20T22:44:14.357Z,37.22
2022-11-20T22:46:42.961Z,37.17
2022-11-20T22:49:10.906Z,37.17
2022-11-20T22:51:40.334Z,37.64
2022-11-20T22:54:09.833Z,37.45
2022-11-20T22:56:38.432Z,37.40
2022-11-20T22:59:07.748Z,37.20
2022-11-20T23:01:37.369Z,37.28
2022-11-20T23:04:06.241Z,37.19
2022-11-20T23:06:35.843Z,37.67
2022-11-20T23:09:03.840Z,37.21
2022-11-20T23:11:32.690Z,37.49
2022-11-20T23:14:01.249Z,37.32
2022-11-20T23:16:32.125Z,37.41
2022-11-20T23:19:02.906Z,37.43
2022-11-20T23:21:32.635Z,37.68
2022-11-20T23:24:01.730Z,37.34
2022-11-20T23:26:31.661Z,37.33
2022-11-20T23:29:01.293Z,37.19
2022-11-20T23:31:32.535Z,37.25
2022-11-20T23:34:01.972Z,37.08
2022-11-20T23:36:31.073Z,37.20
2022-11-20T23:39:00.037Z,37.16
2022-11-20T23:41:29.683Z,37.00
2022-11-20T23:43:59.201Z,37.22
2022-11-20T23:46:29.612Z,37.28
2022-11-20T23:49:00.301Z,37.13
2022-11-20T23:51:29.573Z,36.90
2022-11-20T23:54:04.368Z,37.16
2022-11-20T23:56:34.282Z,36.91
2022-11-20T23:59:02.206Z,36.79
